createdAt,value
2023-05-22T00:00:16.754Z,100891.59
2023-05-22T00:02:44.083Z,100879.13
2023-05-22T00:05:16.312Z,100886.22
2023-05-22T00:07:43.642Z,100888.50
2023-05-22T00:10:10.937Z,100890.19
2023-05-22T00:12:37.848Z,100886.78
2023-05-22T00:15:05.152Z,100879.56
2023-05-22T00:17:32.121Z,100881.81
2023-05-22T00:20:08.301Z,100878.56
2023-05-22T00:22:35.782Z,100884.09
2023-05-22T00:25:06.655Z,100876.72
2023-05-22T00:27:34.276Z,100885.94
2023-05-22T00:30:01.448Z,100883.81
2023-05-22T00:32:28.564Z,100884.13
2023-05-22T00:34:55.557Z,100889.66
2023-05-22T00:37:22.301Z,100887.41
2023-05-22T00:39:49.421Z,100889.25
2023-05-22T00:42:16.155Z,100894.31
2023-05-22T00:44:42.989Z,100896.16
2023-05-22T00:47:09.843Z,100895.63
2023-05-22T00:49:36.853Z,100883.56
2023-05-22T00:52:03.883Z,100887.53
2023-05-22T00:54:31.711Z,100887.69
2023-05-22T00:56:58.581Z,100887.69
2023-05-22T00:59:25.478Z,100890.09
2023-05-22T01:01:52.259Z,100892.06
2023-05-22T01:04:19.210Z,100893.91
2023-05-22T01:06:47.896Z,100892.78
2023-05-22T01:09:15.120Z,100890.09
2023-05-22T01:12:19.567Z,100880.00
2023-05-22T01:15:04.467Z,100879.03
2023-05-22T01:17:46.530Z,100880.44
2023-05-22T01:20:26.043Z,100871.38
2023-05-22T01:23:24.670Z,100871.66
2023-05-22T01:25:58.080Z,100877.22
2023-05-22T01:28:38.801Z,100869.81
2023-05-22T01:31:08.420Z,100866.59
2023-05-22T01:33:53.716Z,100863.03
2023-05-22T01:36:26.328Z,100870.56
2023-05-22T01:38:54.106Z,100869.13
2023-05-22T01:41:21.749Z,100870.56
2023-05-22T01:43:48.595Z,100869.13
2023-05-22T01:46:15.619Z,100862.03
2023-05-22T01:48:42.466Z,100863.06
2023-05-22T01:51:21.431Z,100872.13
2023-05-22T01:53:54.655Z,100865.03
2023-05-22T01:56:31.036Z,100863.47
2023-05-22T01:59:34.628Z,100859.25
2023-05-22T02:02:05.763Z,100857.25
2023-05-22T02:04:33.140Z,100852.72
2023-05-22T02:07:01.383Z,100857.41
2023-05-22T02:09:30.315Z,100857.41
2023-05-22T02:11:59.007Z,100859.53
2023-05-22T02:14:26.650Z,100867.03
2023-05-22T02:16:53.688Z,100867.75
2023-05-22T02:19:20.534Z,100864.34
2023-05-22T02:21:47.299Z,100862.09
2023-05-22T02:24:14.040Z,100863.22
2023-05-22T02:26:40.809Z,100853.47
2023-05-22T02:29:07.541Z,100858.97
2023-05-22T02:31:34.416Z,100855.44
2023-05-22T02:34:01.364Z,100853.91
2023-05-22T02:36:28.153Z,100850.16
2023-05-22T02:38:55.757Z,100852.56
2023-05-22T02:41:22.906Z,100858.78
2023-05-22T02:43:49.772Z,100847.31
2023-05-22T02:46:16.515Z,100848.16
2023-05-22T02:48:43.350Z,100852.00
2023-05-22T02:51:10.100Z,100850.13
2023-05-22T02:53:40.367Z,100850.97
2023-05-22T02:56:12.189Z,100856.03
2023-05-22T02:58:39.752Z,100852.13
2023-05-22T03:01:06.895Z,100855.63
2023-05-22T03:03:34.313Z,100858.03
2023-05-22T03:06:02.017Z,100861.00
2023-05-22T03:08:29.327Z,100857.16
2023-05-22T03:10:57.362Z,100855.44
2023-05-22T03:13:24.361Z,100856.28
2023-05-22T03:15:51.500Z,100857.16
2023-05-22T03:18:18.339Z,100849.09
2023-05-22T03:20:45.058Z,100851.22
2023-05-22T03:23:12.814Z,100848.78
2023-05-22T03:25:39.742Z,100847.06
2023-05-22T03:28:06.704Z,100853.31
2023-05-22T03:30:33.886Z,100852.31
2023-05-22T03:33:00.847Z,100854.31
2023-05-22T03:35:27.593Z,100847.91
2023-05-22T03:37:54.421Z,100857.94
2023-05-22T03:40:21.259Z,100855.13
2023-05-22T03:42:49.594Z,100854.41
2023-05-22T03:45:16.575Z,100844.94
2023-05-22T03:47:43.353Z,100849.50
2023-05-22T03:50:10.625Z,100860.25
2023-05-22T03:52:37.399Z,100850.31
2023-05-22T03:55:04.628Z,100851.47
2023-05-22T03:57:31.331Z,100849.50
2023-05-22T04:00:03.040Z,100844.38
2023-05-22T04:02:30.424Z,100847.19
2023-05-22T04:04:57.440Z,100840.72
2023-05-22T04:07:24.217Z,100846.09
2023-05-22T04:09:51.039Z,100848.91
2023-05-22T04:12:17.798Z,100851.72
2023-05-22T04:14:44.549Z,100850.16
2023-05-22T04:17:12.100Z,100851.56
2023-05-22T04:19:38.803Z,100851.69
2023-05-22T04:22:05.979Z,100852.97
2023-05-22T04:24:33.219Z,100853.28
2023-05-22T04:27:00.541Z,100851.41
2023-05-22T04:29:28.755Z,100855.97
2023-05-22T04:31:55.747Z,100850.31
2023-05-22T04:34:22.562Z,100863.59
2023-05-22T04:36:49.443Z,100860.59
2023-05-22T04:39:16.288Z,100860.13
2023-05-22T04:41:43.119Z,100867.47
2023-05-22T04:44:09.921Z,100873.06
2023-05-22T04:46:36.688Z,100873.91
2023-05-22T04:49:03.604Z,100870.38
2023-05-22T04:51:31.460Z,100868.66
2023-05-22T04:53:58.766Z,100868.66
2023-05-22T04:56:35.326Z,100871.91
2023-05-22T04:59:04.940Z,100871.53
2023-05-22T05:01:33.312Z,100870.69
2023-05-22T05:04:00.934Z,100866.28
2023-05-22T05:06:27.915Z,100873.94
2023-05-22T05:08:55.157Z,100868.44
2023-05-22T05:11:21.884Z,100874.50
2023-05-22T05:13:48.636Z,100869.53
2023-05-22T05:16:15.355Z,100877.47
2023-05-22T05:18:42.097Z,100875.63
2023-05-22T05:21:09.241Z,100871.81
2023-05-22T05:23:36.493Z,100874.22
2023-05-22T05:26:03.327Z,100876.06
2023-05-22T05:28:30.090Z,100877.03
2023-05-22T05:30:58.116Z,100878.75
2023-05-22T05:33:24.977Z,100872.28
2023-05-22T05:35:52.917Z,100873.56
2023-05-22T05:38:19.644Z,100877.34
2023-05-22T05:40:47.162Z,100877.66
2023-05-22T05:43:15.430Z,100877.09
2023-05-22T05:45:43.036Z,100876.94
2023-05-22T05:48:10.091Z,100876.69
2023-05-22T05:50:37.186Z,100882.63
2023-05-22T05:53:04.177Z,100881.75
2023-05-22T05:55:33.281Z,100886.16
2023-05-22T05:58:01.168Z,100888.59
2023-05-22T06:00:28.081Z,100893.13
2023-05-22T06:02:55.334Z,100888.72
2023-05-22T06:05:22.699Z,100884.38
2023-05-22T06:07:49.921Z,100887.19
2023-05-22T06:10:16.790Z,100885.34
2023-05-22T06:12:43.673Z,100886.03
2023-05-22T06:15:11.231Z,100883.88
2023-05-22T06:17:38.030Z,100888.53
2023-05-22T06:20:07.628Z,100883.88
2023-05-22T06:22:34.388Z,100888.28
2023-05-22T06:25:01.527Z,100896.34
2023-05-22T06:27:28.345Z,100898.25
2023-05-22T06:29:56.412Z,100900.75
2023-05-22T06:32:23.444Z,100908.56
2023-05-22T06:34:50.267Z,100908.16
2023-05-22T06:37:17.152Z,100907.88
2023-05-22T06:39:43.929Z,100907.03
2023-05-22T06:42:10.752Z,100914.25
2023-05-22T06:44:37.551Z,100911.56
2023-05-22T06:47:04.527Z,100909.16
2023-05-22T06:49:31.303Z,100908.75
2023-05-22T06:51:58.041Z,100913.72
2023-05-22T06:54:28.697Z,100917.00
2023-05-22T06:56:56.636Z,100922.69
2023-05-22T06:59:23.431Z,100918.16
2023-05-22T07:01:50.353Z,100920.72
2023-05-22T07:04:17.492Z,100922.97
2023-05-22T07:06:45.900Z,100923.81
2023-05-22T07:09:14.165Z,100928.22
2023-05-22T07:11:44.032Z,100927.22
2023-05-22T07:14:12.811Z,100929.63
2023-05-22T07:16:40.630Z,100934.56
2023-05-22T07:19:09.087Z,100941.94
2023-05-22T07:21:36.444Z,100948.63
2023-05-22T07:24:08.378Z,100943.50
2023-05-22T07:26:36.357Z,100945.91
2023-05-22T07:29:04.008Z,100955.53
2023-05-22T07:31:34.815Z,100953.97
2023-05-22T07:34:01.736Z,100958.06
2023-05-22T07:36:28.477Z,100962.47
2023-05-22T07:38:55.318Z,100962.31
2023-05-22T07:41:22.929Z,100962.16
2023-05-22T07:43:49.977Z,100970.25
2023-05-22T07:46:16.899Z,100960.56
2023-05-22T07:48:44.061Z,100956.88
2023-05-22T07:51:10.879Z,100961.19
2023-05-22T07:53:37.748Z,100967.72
2023-05-22T07:56:04.603Z,100969.94
2023-05-22T07:58:31.620Z,100975.72
2023-05-22T08:00:58.614Z,100976.41
2023-05-22T08:03:25.501Z,100982.41
2023-05-22T08:05:52.557Z,100979.25
2023-05-22T08:08:19.314Z,100982.53
2023-05-22T08:11:01.735Z,100980.25
2023-05-22T08:13:29.722Z,100982.63
2023-05-22T08:16:00.357Z,100981.47
2023-05-22T08:18:29.632Z,100991.91
2023-05-22T08:20:56.860Z,100980.19
2023-05-22T08:23:23.677Z,100990.25
2023-05-22T08:25:50.551Z,100984.56
2023-05-22T08:28:17.382Z,100986.22
2023-05-22T08:30:44.304Z,100985.41
2023-05-22T08:33:12.514Z,100991.59
2023-05-22T08:35:39.437Z,100994.16
2023-05-22T08:38:06.272Z,100989.09
2023-05-22T08:40:41.308Z,100992.44
2023-05-22T08:43:09.597Z,100986.75
2023-05-22T08:45:36.441Z,100991.91
2023-05-22T08:48:06.454Z,100993.19
2023-05-22T08:50:34.963Z,100996.63
2023-05-22T08:53:07.107Z,100995.69
2023-05-22T08:55:34.683Z,100990.09
2023-05-22T08:58:01.589Z,100994.41
2023-05-22T09:00:29.887Z,100991.56
2023-05-22T09:02:57.862Z,100999.53
2023-05-22T09:05:27.003Z,101000.88
2023-05-22T09:07:56.545Z,100996.34
2023-05-22T09:10:25.854Z,101004.03
2023-05-22T09:13:04.757Z,101005.13
2023-05-22T09:15:32.639Z,101007.34
2023-05-22T09:18:00.215Z,101005.09
2023-05-22T09:20:27.225Z,101013.81
2023-05-22T09:22:54.098Z,101013.53
2023-05-22T09:25:21.822Z,101009.06
2023-05-22T09:27:49.047Z,101014.28
2023-05-22T09:30:19.847Z,101012.03
2023-05-22T09:32:48.938Z,101020.72
2023-05-22T09:35:16.788Z,101015.66
2023-05-22T09:37:43.552Z,101013.09
2023-05-22T09:40:14.458Z,101021.06
2023-05-22T09:42:45.025Z,101021.66
2023-05-22T09:45:11.919Z,101015.84
2023-05-22T09:47:39.178Z,101021.06
2023-05-22T09:50:07.639Z,101018.81
2023-05-22T09:52:35.923Z,101012.56
2023-05-22T09:55:07.379Z,101014.16
2023-05-22T09:57:45.660Z,101008.91
2023-05-22T10:00:16.272Z,101015.31
2023-05-22T10:02:48.256Z,101023.53
2023-05-22T10:05:24.513Z,101016.59
2023-05-22T10:07:54.756Z,101016.88
2023-05-22T10:10:23.474Z,101018.84
2023-05-22T10:13:04.790Z,101016.47
2023-05-22T10:15:32.375Z,101012.94
2023-05-22T10:17:59.630Z,101008.44
2023-05-22T10:20:27.975Z,101013.09
2023-05-22T10:22:55.395Z,101021.03
2023-05-22T10:25:22.561Z,101007.97
2023-05-22T10:27:52.692Z,101001.22
2023-05-22T10:30:22.472Z,100998.34
2023-05-22T10:33:06.102Z,101005.59
2023-05-22T10:35:40.238Z,100991.00
2023-05-22T10:38:28.289Z,100996.81
2023-05-22T10:40:55.465Z,101000.81
2023-05-22T10:43:22.965Z,100991.44
2023-05-22T10:45:49.823Z,100995.47
2023-05-22T10:48:21.855Z,100991.81
2023-05-22T10:50:53.191Z,100988.63
2023-05-22T10:53:32.582Z,100984.31
2023-05-22T10:56:02.905Z,100983.28
2023-05-22T10:58:37.512Z,100986.72
2023-05-22T11:01:17.494Z,100981.13
2023-05-22T11:04:16.218Z,100994.00
2023-05-22T11:07:15.707Z,100991.47
2023-05-22T11:09:43.545Z,100978.03
2023-05-22T11:12:16.783Z,100982.88
2023-05-22T11:14:47.933Z,100980.84
2023-05-22T11:17:18.975Z,100975.56
2023-05-22T11:19:49.876Z,100981.34
2023-05-22T11:22:17.982Z,100974.56
2023-05-22T11:24:44.985Z,100973.78
2023-05-22T11:27:11.798Z,100965.19
2023-05-22T11:29:41.829Z,100965.63
2023-05-22T11:32:09.401Z,100969.00
2023-05-22T11:34:37.270Z,100966.72
2023-05-22T11:37:04.127Z,100967.34
2023-05-22T11:39:32.926Z,100967.50
2023-05-22T11:41:59.702Z,100963.97
2023-05-22T11:44:27.998Z,100958.38
2023-05-22T11:46:54.878Z,100962.41
2023-05-22T11:49:25.700Z,100956.53
2023-05-22T11:51:52.589Z,100954.16
2023-05-22T11:54:19.614Z,100955.03
2023-05-22T11:56:46.741Z,100952.16
2023-05-22T11:59:13.574Z,100944.84
2023-05-22T12:01:40.401Z,100950.63
2023-05-22T12:04:07.286Z,100938.22
2023-05-22T12:06:34.361Z,100943.28
2023-05-22T12:09:01.728Z,100945.31
2023-05-22T12:11:28.617Z,100944.88
2023-05-22T12:14:02.770Z,100937.97
2023-05-22T12:16:34.657Z,100944.94
2023-05-22T12:19:05.992Z,100939.75
2023-05-22T12:21:32.926Z,100942.19
2023-05-22T12:24:04.176Z,100936.91
2023-05-22T12:26:31.800Z,100941.94
2023-05-22T12:28:59.505Z,100928.78
2023-05-22T12:31:26.652Z,100929.31
2023-05-22T12:33:57.094Z,100937.59
2023-05-22T12:36:39.957Z,100940.13
2023-05-22T12:39:11.273Z,100940.31
2023-05-22T12:41:41.240Z,100939.13
2023-05-22T12:44:08.362Z,100928.47
2023-05-22T12:46:35.320Z,100934.75
2023-05-22T12:49:02.467Z,100924.94
2023-05-22T12:51:31.387Z,100928.66
2023-05-22T12:53:59.283Z,100921.88
2023-05-22T12:56:26.303Z,100921.06
2023-05-22T12:58:53.236Z,100917.16
2023-05-22T13:01:20.257Z,100918.16
2023-05-22T13:03:47.053Z,100913.22
2023-05-22T13:06:13.955Z,100918.16
2023-05-22T13:08:40.700Z,100918.00
2023-05-22T13:11:07.439Z,100919.53
2023-05-22T13:13:34.235Z,100917.50
2023-05-22T13:16:01.211Z,100923.91
2023-05-22T13:18:27.995Z,100919.72
2023-05-22T13:20:56.592Z,100915.47
2023-05-22T13:23:23.651Z,100918.66
2023-05-22T13:25:50.553Z,100910.03
2023-05-22T13:28:17.333Z,100918.66
2023-05-22T13:30:44.088Z,100910.38
2023-05-22T13:33:15.900Z,100892.72
2023-05-22T13:35:45.565Z,100892.53
2023-05-22T13:38:12.427Z,100894.00
2023-05-22T13:40:39.554Z,100901.25
2023-05-22T13:43:06.387Z,100897.38
2023-05-22T13:45:33.344Z,100901.78
2023-05-22T13:48:00.258Z,100901.25
2023-05-22T13:50:27.085Z,100892.31
2023-05-22T13:52:53.943Z,100891.78
2023-05-22T13:55:21.194Z,100886.88
2023-05-22T13:57:47.936Z,100909.22
2023-05-22T14:00:15.261Z,100895.16
2023-05-22T14:02:42.110Z,100897.69
2023-05-22T14:05:09.160Z,100894.31
2023-05-22T14:07:36.001Z,100897.69
2023-05-22T14:10:02.824Z,100903.97
2023-05-22T14:12:29.746Z,100899.38
2023-05-22T14:14:56.588Z,100904.13
2023-05-22T14:17:23.354Z,100903.63
2023-05-22T14:19:50.112Z,100902.47
2023-05-22T14:22:17.012Z,100897.72
2023-05-22T14:24:43.797Z,100905.47
2023-05-22T14:27:10.526Z,100911.22
2023-05-22T14:29:37.294Z,100908.13
2023-05-22T14:32:05.402Z,100906.78
2023-05-22T14:34:32.370Z,100909.69
2023-05-22T14:36:59.193Z,100901.94
2023-05-22T14:39:26.276Z,100908.88
2023-05-22T14:41:54.018Z,100899.75
2023-05-22T14:44:22.780Z,100896.34
2023-05-22T14:46:51.186Z,100893.94
2023-05-22T14:49:18.187Z,100886.50
2023-05-22T14:51:48.274Z,100886.03
2023-05-22T14:54:19.297Z,100892.44
2023-05-22T14:56:46.559Z,100895.00
2023-05-22T14:59:14.375Z,100900.19
2023-05-22T15:01:41.327Z,100893.47
2023-05-22T15:04:09.197Z,100892.13
2023-05-22T15:06:36.454Z,100876.22
2023-05-22T15:09:03.434Z,100883.47
2023-05-22T15:11:30.233Z,100891.44
2023-05-22T15:13:57.011Z,100880.31
2023-05-22T15:16:25.827Z,100883.56
2023-05-22T15:18:53.680Z,100877.75
2023-05-22T15:21:21.151Z,100870.25
2023-05-22T15:23:48.424Z,100865.97
2023-05-22T15:26:16.337Z,100875.09
2023-05-22T15:28:43.149Z,100870.16
2023-05-22T15:31:12.187Z,100858.28
2023-05-22T15:33:39.891Z,100870.59
2023-05-22T15:36:06.993Z,100860.31
2023-05-22T15:38:34.008Z,100861.00
2023-05-22T15:41:10.633Z,100860.69
2023-05-22T15:43:42.923Z,100855.97
2023-05-22T15:46:12.660Z,100861.00
2023-05-22T15:48:42.556Z,100871.31
2023-05-22T15:51:09.934Z,100858.53
2023-05-22T15:53:36.984Z,100858.53
2023-05-22T15:56:04.125Z,100864.78
2023-05-22T15:58:31.224Z,100857.66
2023-05-22T16:00:58.252Z,100854.78
2023-05-22T16:03:25.869Z,100860.16
2023-05-22T16:05:55.326Z,100860.53
2023-05-22T16:08:22.494Z,100854.59
2023-05-22T16:10:49.502Z,100865.56
2023-05-22T16:13:20.728Z,100865.28
2023-05-22T16:16:06.513Z,100866.88
2023-05-22T16:18:33.910Z,100874.03
2023-05-22T16:21:09.146Z,100869.75
2023-05-22T16:23:38.177Z,100867.94
2023-05-22T16:26:06.824Z,100871.03
2023-05-22T16:28:39.176Z,100873.44
2023-05-22T16:31:08.176Z,100889.03
2023-05-22T16:33:36.553Z,100907.00
2023-05-22T16:36:04.194Z,100915.41
2023-05-22T16:38:30.936Z,100909.41
2023-05-22T16:40:58.317Z,100917.13
2023-05-22T16:43:25.145Z,100924.84
2023-05-22T16:45:51.956Z,100929.28
2023-05-22T16:48:18.817Z,100933.25
2023-05-22T16:50:46.886Z,100933.78
2023-05-22T16:53:14.004Z,100922.00
2023-05-22T16:55:41.065Z,100931.97
2023-05-22T16:58:09.351Z,100935.06
2023-05-22T17:00:36.664Z,100916.94
2023-05-22T17:03:04.030Z,100923.34
2023-05-22T17:05:31.018Z,100924.25
2023-05-22T17:07:57.810Z,100926.50
2023-05-22T17:10:26.875Z,100925.50
2023-05-22T17:12:56.764Z,100926.97
2023-05-22T17:15:26.076Z,100940.28
2023-05-22T17:17:52.929Z,100952.06
2023-05-22T17:20:22.319Z,100949.34
2023-05-22T17:22:49.369Z,100962.13
2023-05-22T17:25:16.498Z,100955.47
2023-05-22T17:27:50.321Z,100954.34
2023-05-22T17:30:17.528Z,100953.16
2023-05-22T17:32:45.378Z,100948.22
2023-05-22T17:35:12.289Z,100955.31
2023-05-22T17:37:39.085Z,100946.53
2023-05-22T17:40:06.784Z,100963.09
2023-05-22T17:42:33.553Z,100961.81
2023-05-22T17:45:00.329Z,100971.63
2023-05-22T17:47:27.126Z,100966.66
2023-05-22T17:49:54.033Z,100972.03
2023-05-22T17:52:20.861Z,100972.44
2023-05-22T17:54:47.599Z,100975.41
2023-05-22T17:57:14.466Z,100973.81
2023-05-22T17:59:41.235Z,100974.22
2023-05-22T18:02:09.298Z,100983.41
2023-05-22T18:04:36.636Z,100977.97
2023-05-22T18:07:04.075Z,100985.75
2023-05-22T18:09:31.136Z,100985.63
2023-05-22T18:11:59.120Z,100987.00
2023-05-22T18:14:26.271Z,100987.06
2023-05-22T18:17:00.373Z,100981.97
2023-05-22T18:19:27.375Z,100990.84
2023-05-22T18:21:54.303Z,100980.47
2023-05-22T18:24:25.197Z,100982.31
2023-05-22T18:26:52.219Z,100990.13
2023-05-22T18:29:19.203Z,100993.47
2023-05-22T18:31:46.506Z,100999.63
2023-05-22T18:34:13.922Z,101001.34
2023-05-22T18:36:44.135Z,101002.19
2023-05-22T18:39:11.647Z,101010.44
2023-05-22T18:41:39.013Z,101010.41
2023-05-22T18:44:05.866Z,101016.53
2023-05-22T18:46:32.822Z,101014.44
2023-05-22T18:48:59.814Z,101020.13
2023-05-22T18:51:26.924Z,101024.69
2023-05-22T18:53:53.953Z,101025.31
2023-05-22T18:56:20.727Z,101023.28
2023-05-22T18:58:47.572Z,101032.69
2023-05-22T19:01:14.377Z,101032.56
2023-05-22T19:03:41.401Z,101030.00
2023-05-22T19:06:08.473Z,101045.53
2023-05-22T19:08:35.522Z,101039.00
2023-05-22T19:11:02.400Z,101049.66
2023-05-22T19:13:29.595Z,101043.28
2023-05-22T19:15:57.518Z,101055.34
2023-05-22T19:18:24.877Z,101062.13
2023-05-22T19:20:51.695Z,101055.81
2023-05-22T19:23:18.870Z,101059.50
2023-05-22T19:25:46.058Z,101067.97
2023-05-22T19:28:12.780Z,101076.78
2023-05-22T19:30:40.022Z,101083.31
2023-05-22T19:33:08.975Z,101090.13
2023-05-22T19:35:36.027Z,101085.88
2023-05-22T19:38:02.726Z,101087.91
2023-05-22T19:40:29.512Z,101096.28
2023-05-22T19:42:56.494Z,101100.97
2023-05-22T19:45:26.110Z,101093.00
2023-05-22T19:47:53.092Z,101093.19
2023-05-22T19:50:19.929Z,101098.97
2023-05-22T19:52:46.718Z,101104.09
2023-05-22T19:55:13.479Z,101112.75
2023-05-22T19:57:40.741Z,101102.94
2023-05-22T20:00:11.165Z,101104.81
2023-05-22T20:02:38.661Z,101101.84
2023-05-22T20:05:09.807Z,101106.94
2023-05-22T20:07:36.696Z,101120.00
2023-05-22T20:10:06.946Z,101122.38
2023-05-22T20:12:34.145Z,101125.50
2023-05-22T20:15:02.933Z,101128.50
2023-05-22T20:17:30.384Z,101137.44
2023-05-22T20:20:00.764Z,101142.81
2023-05-22T20:22:28.136Z,101143.47
2023-05-22T20:24:54.916Z,101137.34
2023-05-22T20:27:21.738Z,101139.34
2023-05-22T20:29:51.432Z,101154.78
2023-05-22T20:32:18.403Z,101148.28
2023-05-22T20:34:46.732Z,101149.81
2023-05-22T20:37:13.844Z,101141.13
2023-05-22T20:39:43.765Z,101150.81
2023-05-22T20:42:11.880Z,101151.63
2023-05-22T20:44:39.429Z,101154.03
2023-05-22T20:47:06.624Z,101162.13
2023-05-22T20:49:34.983Z,101159.56
2023-05-22T20:52:03.050Z,101154.28
2023-05-22T20:54:34.751Z,101155.13
2023-05-22T20:57:02.151Z,101166.44
2023-05-22T20:59:29.310Z,101165.41
2023-05-22T21:01:57.355Z,101174.13
2023-05-22T21:04:24.718Z,101167.47
2023-05-22T21:06:51.587Z,101167.03
2023-05-22T21:09:18.458Z,101169.56
2023-05-22T21:11:45.454Z,101175.53
2023-05-22T21:14:12.336Z,101176.44
2023-05-22T21:16:40.335Z,101182.09
2023-05-22T21:19:07.697Z,101185.13
2023-05-22T21:21:36.403Z,101183.66
2023-05-22T21:24:03.585Z,101176.41
2023-05-22T21:26:30.572Z,101187.03
2023-05-22T21:28:57.592Z,101182.97
2023-05-22T21:31:24.429Z,101181.38
2023-05-22T21:33:51.865Z,101180.84
2023-05-22T21:36:18.781Z,101193.75
2023-05-22T21:38:45.970Z,101188.91
2023-05-22T21:41:13.254Z,101189.22
2023-05-22T21:43:40.001Z,101197.28
2023-05-22T21:46:06.950Z,101187.56
2023-05-22T21:48:34.619Z,101197.78
2023-05-22T21:51:01.465Z,101193.50
2023-05-22T21:53:28.210Z,101197.91
2023-05-22T21:55:55.050Z,101203.19
2023-05-22T21:58:22.121Z,101193.81
2023-05-22T22:00:48.850Z,101195.41
2023-05-22T22:03:16.165Z,101202.94
2023-05-22T22:05:42.998Z,101205.31
2023-05-22T22:08:09.983Z,101203.47
2023-05-22T22:10:36.747Z,101215.94
2023-05-22T22:13:03.580Z,101211.31
2023-05-22T22:15:31.806Z,101208.16
2023-05-22T22:18:02.394Z,101205.75
2023-05-22T22:20:44.124Z,101217.97
2023-05-22T22:23:11.413Z,101220.22
2023-05-22T22:25:39.462Z,101217.69
2023-05-22T22:28:07.556Z,101219.38
2023-05-22T22:30:35.560Z,101220.72
2023-05-22T22:33:02.625Z,101229.88
2023-05-22T22:35:29.795Z,101225.25
2023-05-22T22:37:56.973Z,101236.59
2023-05-22T22:40:25.971Z,101227.34
2023-05-22T22:42:53.749Z,101240.44
2023-05-22T22:45:20.582Z,101230.28
2023-05-22T22:47:48.440Z,101232.41
2023-05-22T22:50:15.194Z,101243.47
2023-05-22T22:52:45.683Z,101244.44
2023-05-22T22:55:12.655Z,101235.44
2023-05-22T22:57:39.507Z,101234.94
2023-05-22T23:00:06.924Z,101235.06
2023-05-22T23:02:33.727Z,101240.69
2023-05-22T23:05:00.656Z,101252.00
2023-05-22T23:07:28.278Z,101256.41
2023-05-22T23:09:54.985Z,101252.50
2023-05-22T23:12:21.786Z,101242.25
2023-05-22T23:14:50.617Z,101255.44
2023-05-22T23:17:17.448Z,101242.41
2023-05-22T23:19:44.800Z,101252.38
2023-05-22T23:22:11.539Z,101253.47
2023-05-22T23:24:38.316Z,101254.81
2023-05-22T23:27:05.516Z,101250.56
2023-05-22T23:29:32.517Z,101252.13
2023-05-22T23:31:59.517Z,101240.53
2023-05-22T23:34:26.448Z,101237.63
2023-05-22T23:36:53.244Z,101245.91
2023-05-22T23:39:20.066Z,101241.16
2023-05-22T23:41:46.813Z,101246.47
2023-05-22T23:44:13.565Z,101247.56
2023-05-22T23:46:41.469Z,101244.25
2023-05-22T23:49:08.504Z,101240.84
2023-05-22T23:51:35.197Z,101247.03
2023-05-22T23:54:01.902Z,101236.81
2023-05-22T23:56:28.675Z,101240.19
2023-05-22T23:58:56.267Z,101243.84
